Terminal Aerodrome Forecast
Issued by NWS

Home | Current Version | Previous Version | Text Only | Print | Product List | Glossary On
Versions: 1 2 3 4 5 6 7 8 9 10 11 12 13 14 15 16 17 18 19 20 21 22 23 24
000
FTUS45 KSLC 232334
TAF36U
TAF
K36U 232334Z 2400/2424 23011G21KT P6SM SCT090 BKN120
     FM240200 VRB05KT P6SM FEW100 SCT130
     FM241900 23012G20KT P6SM FEW130=

USA.gov is the U.S. government's official web portal to all federal, state and local government web resources and services.